Time;durP1;ratioP1;P1;durP2;ratioP2;P2;SDS_P1;SDS_P2;PMS_P1;PMS_P2;Temp;Humidity;BMP_temperature;BMP_pressure;BME280_temperature;BME280_humidity;BME280_pressure;Samples;Min_cycle;Max_cycle;Signal;HPM_P1;HPM_P2
2022/02/05 00:00:23;;;;;;;2.20;2.00;;;3.30;99.90;;;;;;4989089;28;20060;-75
2022/02/05 00:02:53;;;;;;;1.90;1.70;;;3.30;99.90;;;;;;4996385;28;20021;-75
2022/02/05 00:05:23;;;;;;;1.92;1.80;;;3.30;99.90;;;;;;4975688;28;20026;-76
2022/02/05 00:08:07;;;;;;;1.60;1.50;;;3.30;99.90;;;;;;4998576;28;20046;-76
2022/02/05 00:11:02;;;;;;;1.92;1.67;;;3.20;99.90;;;;;;4973849;28;20076;-76
2022/02/05 00:43:17;;;;;;;2.20;2.00;;;3.10;99.90;;;;;;4998078;28;20018;-75
2022/02/05 00:45:49;;;;;;;1.80;1.70;;;3.10;99.90;;;;;;4996475;28;20088;-76
2022/02/05 00:48:15;;;;;;;2.28;1.98;;;3.00;99.90;;;;;;4980390;28;20034;-76
2022/02/05 00:50:46;;;;;;;1.90;1.80;;;3.00;99.90;;;;;;4995399;28;20026;-76
2022/02/05 00:53:32;;;;;;;1.90;1.70;;;3.00;99.90;;;;;;4997800;28;20057;-75
2022/02/05 00:56:11;;;;;;;3.20;2.07;;;2.90;99.90;;;;;;4998102;28;20021;-75
2022/02/05 00:58:39;;;;;;;1.92;1.70;;;2.90;99.90;;;;;;4996478;28;20069;-75
2022/02/05 01:01:06;;;;;;;3.60;1.95;;;3.00;99.90;;;;;;4983509;28;20023;-75
2022/02/05 01:03:33;;;;;;;2.22;2.05;;;2.90;99.90;;;;;;5004130;28;20032;-75
2022/02/05 01:06:02;;;;;;;2.55;2.00;;;3.00;99.90;;;;;;4993166;28;20031;-75
2022/02/05 01:08:29;;;;;;;2.90;2.10;;;2.80;99.90;;;;;;4977435;28;20105;-75
2022/02/05 01:10:55;;;;;;;2.55;1.85;;;2.60;99.90;;;;;;4996621;28;20436;-76
2022/02/05 01:13:21;;;;;;;2.40;1.85;;;2.50;99.90;;;;;;4980986;28;20065;-74
2022/02/05 01:16:03;;;;;;;2.60;1.90;;;2.60;99.90;;;;;;5005154;28;20024;-75
2022/02/05 01:18:30;;;;;;;1.85;1.60;;;2.40;99.90;;;;;;4988472;28;20080;-75
2022/02/05 01:21:11;;;;;;;2.60;1.83;;;2.40;99.90;;;;;;4994263;28;20022;-75
2022/02/05 01:23:46;;;;;;;2.95;1.60;;;2.30;99.90;;;;;;4970891;28;20054;-76
2022/02/05 01:26:18;;;;;;;3.10;1.60;;;2.20;99.90;;;;;;4994406;28;20108;-75
2022/02/05 01:28:48;;;;;;;2.55;1.52;;;2.30;99.90;;;;;;4991948;28;20023;-76
2022/02/05 01:31:14;;;;;;;2.25;1.45;;;2.10;99.90;;;;;;4980675;28;20019;-75
2022/02/05 01:39:18;;;;;;;2.85;1.58;;;1.90;99.90;;;;;;4986962;28;20026;-75
2022/02/05 01:53:25;;;;;;;3.92;1.63;;;1.80;99.90;;;;;;4933049;29;20035;-74
2022/02/05 01:58:26;;;;;;;3.03;1.80;;;1.70;99.90;;;;;;4969097;28;20034;-74
2022/02/05 02:11:38;;;;;;;3.80;2.27;;;1.50;99.90;;;;;;4988751;28;20105;-73
2022/02/05 02:14:31;;;;;;;4.22;2.45;;;1.60;99.90;;;;;;4976075;28;20019;-74
2022/02/05 02:19:33;;;;;;;3.05;2.65;;;1.70;99.90;;;;;;4993959;28;20022;-75
2022/02/05 02:27:36;;;;;;;3.78;2.60;;;1.80;99.90;;;;;;4986179;28;20073;-74
2022/02/05 02:30:10;;;;;;;5.45;3.15;;;1.80;99.90;;;;;;4969975;28;20527;-74
2022/02/05 02:32:40;;;;;;;5.03;2.70;;;1.90;99.90;;;;;;4973858;28;20025;-75
2022/02/05 02:35:12;;;;;;;5.47;2.95;;;1.90;99.90;;;;;;4967771;28;20026;-74
2022/02/05 02:37:52;;;;;;;5.47;2.50;;;2.00;99.90;;;;;;4993191;28;20046;-74
2022/02/05 02:42:52;;;;;;;5.55;2.80;;;2.00;99.90;;;;;;4993556;28;20106;-74
2022/02/05 02:45:18;;;;;;;5.72;3.13;;;2.00;99.90;;;;;;4981975;28;20019;-75
2022/02/05 02:47:44;;;;;;;6.35;2.90;;;2.10;99.90;;;;;;4984353;28;20508;-75
2022/02/05 02:56:30;;;;;;;5.70;2.78;;;2.00;99.90;;;;;;5006838;28;20384;-74
2022/02/05 02:58:34;;;;;;;4.95;3.13;;;2.10;99.90;;;;;;4986529;28;20443;-76
2022/02/05 03:01:01;;;;;;;7.47;3.03;;;2.10;99.90;;;;;;4983301;28;20023;-76
2022/02/05 03:03:27;;;;;;;6.20;3.25;;;2.10;99.90;;;;;;4986062;28;20475;-76
2022/02/05 03:05:53;;;;;;;6.15;3.13;;;2.10;99.90;;;;;;4983061;28;20022;-76
2022/02/05 03:08:19;;;;;;;4.57;2.90;;;2.10;99.90;;;;;;4969704;28;20022;-75
2022/02/05 03:10:45;;;;;;;4.55;3.13;;;2.10;99.90;;;;;;4988557;28;20105;-76
2022/02/05 03:13:11;;;;;;;4.03;3.05;;;2.10;99.90;;;;;;4986807;28;20101;-75
2022/02/05 03:15:38;;;;;;;5.90;3.05;;;2.10;99.90;;;;;;4975184;28;20026;-75
2022/02/05 03:18:10;;;;;;;4.57;2.92;;;2.10;99.90;;;;;;4992570;28;20014;-74
2022/02/05 03:20:35;;;;;;;5.53;3.15;;;2.00;99.90;;;;;;4971485;28;20068;-74
2022/02/05 03:23:02;;;;;;;4.78;2.70;;;2.10;99.90;;;;;;4992289;28;20484;-74
2022/02/05 03:25:28;;;;;;;4.55;2.88;;;2.10;99.90;;;;;;4973514;28;20030;-74
2022/02/05 03:27:54;;;;;;;4.60;3.08;;;2.20;99.90;;;;;;4974955;28;20030;-73
2022/02/05 03:30:19;;;;;;;5.30;3.15;;;2.10;99.90;;;;;;4991663;28;20041;-74
2022/02/05 03:32:45;;;;;;;5.10;3.35;;;2.30;99.90;;;;;;4997144;28;20089;-74
2022/02/05 03:35:10;;;;;;;6.32;2.92;;;2.20;99.90;;;;;;4997023;28;20367;-74
2022/02/05 03:37:36;;;;;;;5.55;2.90;;;2.20;99.90;;;;;;5008061;28;20029;-74
2022/02/05 03:40:02;;;;;;;6.53;2.85;;;2.10;99.90;;;;;;5001592;28;20031;-74
2022/02/05 03:42:27;;;;;;;6.13;2.83;;;2.10;99.90;;;;;;4995969;28;20496;-74
2022/02/05 03:44:53;;;;;;;4.70;2.97;;;2.10;99.90;;;;;;4992542;28;20170;-74
2022/02/05 03:47:18;;;;;;;5.85;2.63;;;2.10;99.90;;;;;;5005327;28;20096;-76
2022/02/05 03:49:44;;;;;;;5.07;2.75;;;2.30;99.90;;;;;;4988237;28;20021;-76
2022/02/05 03:52:09;;;;;;;7.15;3.10;;;2.10;99.90;;;;;;4996393;28;20492;-75
2022/02/05 03:54:35;;;;;;;7.13;2.90;;;2.10;99.90;;;;;;4992115;28;20077;-75
2022/02/05 03:57:01;;;;;;;3.85;2.53;;;2.10;99.90;;;;;;4992199;28;20073;-75
2022/02/05 03:59:27;;;;;;;5.95;2.70;;;2.10;99.90;;;;;;4992357;28;20058;-75
2022/02/05 04:01:54;;;;;;;5.72;2.30;;;2.10;99.90;;;;;;4992162;28;20109;-75
2022/02/05 04:04:20;;;;;;;7.40;2.60;;;2.20;99.90;;;;;;4996016;28;20020;-75
2022/02/05 04:06:45;;;;;;;6.72;2.83;;;2.10;99.90;;;;;;4983623;28;20029;-75
2022/02/05 04:09:19;;;;;;;4.40;2.53;;;2.10;99.90;;;;;;4993159;28;20030;-76
2022/02/05 04:17:07;;;;;;;4.38;2.50;;;2.10;99.90;;;;;;4980509;28;20089;-76
2022/02/05 04:19:32;;;;;;;5.43;2.75;;;2.20;99.90;;;;;;4992124;28;20480;-76
2022/02/05 04:21:58;;;;;;;6.95;2.70;;;2.10;99.90;;;;;;4972793;28;20026;-76
2022/02/05 04:24:24;;;;;;;5.60;3.03;;;2.10;99.90;;;;;;5008934;28;20028;-76
2022/02/05 04:26:51;;;;;;;4.70;2.60;;;2.10;99.90;;;;;;4999898;28;20400;-76
2022/02/05 04:29:16;;;;;;;7.25;3.28;;;2.10;99.90;;;;;;5005460;28;20034;-75
2022/02/05 04:31:42;;;;;;;6.72;2.80;;;2.10;99.90;;;;;;4991729;28;20109;-74
2022/02/05 04:34:08;;;;;;;5.57;2.42;;;2.10;99.90;;;;;;4993243;28;20534;-75
2022/02/05 04:36:35;;;;;;;4.95;2.80;;;2.00;99.90;;;;;;4986880;28;20388;-75
2022/02/05 04:39:09;;;;;;;9.13;3.05;;;1.90;99.90;;;;;;4997301;28;20484;-76
2022/02/05 04:41:46;;;;;;;4.55;2.63;;;1.90;99.90;;;;;;4975482;28;20041;-76
2022/02/05 04:44:22;;;;;;;4.28;2.28;;;1.80;99.90;;;;;;4975331;28;20038;-76
2022/02/05 05:12:21;;;;;;;4.82;2.53;;;1.70;99.90;;;;;;4954564;28;20038;-76
2022/02/05 05:20:15;;;;;;;4.68;2.67;;;1.70;99.90;;;;;;4982402;28;20066;-76
2022/02/05 05:22:40;;;;;;;4.60;2.78;;;1.90;99.90;;;;;;4995916;28;20022;-76
2022/02/05 05:25:06;;;;;;;8.35;2.97;;;1.80;99.90;;;;;;4968910;28;20026;-77
2022/02/05 05:27:32;;;;;;;5.60;2.63;;;1.80;99.90;;;;;;4995242;28;20109;-77
2022/02/05 05:29:58;;;;;;;4.40;2.75;;;1.80;99.90;;;;;;4990087;28;20559;-76
2022/02/05 05:32:24;;;;;;;4.13;2.30;;;1.80;99.90;;;;;;4985035;28;20022;-76
2022/02/05 05:34:49;;;;;;;7.15;3.10;;;1.80;99.90;;;;;;4988567;28;20022;-77
2022/02/05 05:37:18;;;;;;;5.47;3.00;;;1.70;99.90;;;;;;4970967;28;20113;-76
2022/02/05 05:39:45;;;;;;;5.38;2.72;;;1.80;99.90;;;;;;4969937;28;20034;-76
2022/02/05 05:42:15;;;;;;;5.78;2.80;;;1.80;99.90;;;;;;4988627;28;20030;-75
2022/02/05 05:47:20;;;;;;;4.57;2.83;;;1.70;99.90;;;;;;4981563;28;20031;-75
2022/02/05 05:52:17;;;;;;;5.63;3.40;;;1.80;99.90;;;;;;4993727;28;20428;-76
2022/02/05 05:54:43;;;;;;;6.43;2.80;;;1.70;99.90;;;;;;4995642;28;20025;-76
2022/02/05 05:57:09;;;;;;;8.82;3.53;;;1.90;99.90;;;;;;4983400;28;20130;-77
2022/02/05 05:59:35;;;;;;;5.15;3.05;;;1.80;99.90;;;;;;4981033;28;20031;-75
2022/02/05 06:02:01;;;;;;;5.95;3.28;;;1.80;99.90;;;;;;5002852;28;20042;-76
2022/02/05 06:04:27;;;;;;;4.82;3.17;;;1.80;99.90;;;;;;5003232;28;20034;-76
2022/02/05 06:06:52;;;;;;;6.43;3.30;;;1.80;99.90;;;;;;4990115;28;20062;-75
2022/02/05 06:09:18;;;;;;;3.58;3.15;;;1.90;99.90;;;;;;4985235;28;20042;-76
2022/02/05 06:11:43;;;;;;;6.75;3.60;;;1.80;99.90;;;;;;4963351;28;20033;-76
2022/02/05 06:14:09;;;;;;;8.60;3.35;;;1.80;99.90;;;;;;4986797;28;20025;-76
2022/02/05 06:16:36;;;;;;;6.60;3.47;;;1.80;99.90;;;;;;4995233;28;20496;-76
2022/02/05 06:19:01;;;;;;;8.63;3.55;;;1.70;99.90;;;;;;4986034;28;20022;-76
2022/02/05 06:21:27;;;;;;;7.15;3.40;;;1.70;99.90;;;;;;4974174;28;20030;-77
2022/02/05 06:23:52;;;;;;;5.13;3.10;;;1.70;99.90;;;;;;4957804;28;20033;-77
2022/02/05 06:26:18;;;;;;;7.28;3.38;;;1.70;99.90;;;;;;4970235;28;20031;-77
2022/02/05 06:28:43;;;;;;;6.15;3.00;;;1.70;99.90;;;;;;4983941;28;20050;-75
2022/02/05 06:31:09;;;;;;;7.40;3.13;;;1.80;99.90;;;;;;4990693;28;20042;-76
2022/02/05 06:33:34;;;;;;;8.25;3.72;;;1.80;99.90;;;;;;4983304;28;20027;-76
2022/02/05 06:36:00;;;;;;;5.13;3.38;;;1.80;99.90;;;;;;4980678;28;20026;-76
2022/02/05 06:38:25;;;;;;;8.55;4.15;;;1.90;99.90;;;;;;4984130;28;20034;-76
2022/02/05 06:40:52;;;;;;;9.50;3.70;;;1.70;99.90;;;;;;4987000;28;20645;-76
2022/02/05 06:43:18;;;;;;;7.65;4.20;;;1.70;99.90;;;;;;4983242;28;20030;-73
2022/02/05 06:45:44;;;;;;;7.30;3.67;;;1.70;99.90;;;;;;4992339;28;20093;-77
2022/02/05 06:48:10;;;;;;;5.97;3.80;;;1.70;99.90;;;;;;4996267;28;20038;-77
2022/02/05 06:50:36;;;;;;;99.35;68.50;;;1.70;99.90;;;;;;4990283;28;20034;-77
2022/02/05 06:53:02;;;;;;;244.77;168.93;;;1.70;99.90;;;;;;4965766;28;20113;-76
2022/02/05 06:55:28;;;;;;;11.23;7.55;;;1.80;99.90;;;;;;4980155;28;20445;-75
2022/02/05 06:57:54;;;;;;;9.73;4.95;;;1.70;99.90;;;;;;4992127;28;20033;-75
2022/02/05 07:00:19;;;;;;;7.13;4.75;;;1.80;99.90;;;;;;4992010;28;20381;-75
2022/02/05 07:02:45;;;;;;;10.43;8.32;;;1.80;99.90;;;;;;4985798;28;20026;-75
2022/02/05 07:05:11;;;;;;;10.60;9.60;;;2.00;99.90;;;;;;4979219;28;20546;-75
2022/02/05 07:07:37;;;;;;;11.55;8.55;;;1.70;99.90;;;;;;4983888;28;20050;-75
2022/02/05 07:10:03;;;;;;;11.77;10.45;;;1.70;99.90;;;;;;4969365;28;20061;-76
2022/02/05 07:12:29;;;;;;;10.05;9.13;;;1.70;99.90;;;;;;4982452;28;20072;-75
2022/02/05 07:15:02;;;;;;;8.73;5.07;;;1.70;99.90;;;;;;4992909;28;20015;-74
2022/02/05 07:20:27;;;;;;;9.77;4.30;;;1.80;99.90;;;;;;4994162;28;20034;-74
2022/02/05 07:31:00;;;;;;;7.00;4.90;;;1.80;99.90;;;;;;4985911;28;20547;-75
2022/02/05 07:33:25;;;;;;;9.35;4.60;;;1.90;99.90;;;;;;4964433;28;20046;-75
2022/02/05 07:35:51;;;;;;;11.07;5.65;;;1.90;99.90;;;;;;4992595;28;20597;-75
2022/02/05 07:38:16;;;;;;;9.02;4.72;;;1.90;99.90;;;;;;5001652;28;20042;-75
2022/02/05 07:40:42;;;;;;;7.35;4.82;;;1.90;99.90;;;;;;4991147;28;20049;-75
2022/02/05 07:43:08;;;;;;;6.65;4.75;;;2.00;99.90;;;;;;4967028;28;20038;-75
2022/02/05 07:45:33;;;;;;;10.30;5.07;;;2.00;99.90;;;;;;4985898;28;20038;-75
2022/02/05 07:47:59;;;;;;;8.00;4.60;;;2.00;99.90;;;;;;4981084;28;20081;-74
2022/02/05 07:50:25;;;;;;;7.10;4.38;;;2.00;99.90;;;;;;4979486;28;20548;-75
2022/02/05 07:52:50;;;;;;;8.65;4.88;;;2.00;99.90;;;;;;4979015;28;20073;-74
2022/02/05 07:55:16;;;;;;;11.38;4.55;;;2.10;99.90;;;;;;4991261;28;20389;-74
2022/02/05 07:57:41;;;;;;;9.85;5.63;;;2.10;99.90;;;;;;4984181;28;20038;-74
2022/02/05 08:00:08;;;;;;;7.78;4.55;;;2.10;99.90;;;;;;4973929;28;20031;-74
2022/02/05 08:02:33;;;;;;;9.50;5.00;;;2.10;99.90;;;;;;4984245;28;20033;-75
2022/02/05 08:04:59;;;;;;;9.13;4.95;;;2.20;99.90;;;;;;4969758;28;20023;-74
2022/02/05 08:07:25;;;;;;;10.82;6.18;;;2.20;99.90;;;;;;4975270;28;20046;-74
2022/02/05 08:09:57;;;;;;;8.13;5.15;;;2.20;99.90;;;;;;4961801;28;20051;-74
2022/02/05 08:12:24;;;;;;;9.00;5.20;;;2.20;99.90;;;;;;4966255;28;20102;-74
2022/02/05 08:14:52;;;;;;;12.40;8.63;;;2.20;99.90;;;;;;4970658;28;20027;-74
2022/02/05 08:19:45;;;;;;;8.50;5.88;;;2.20;99.90;;;;;;4996166;28;20468;-74
2022/02/05 08:22:11;;;;;;;11.10;6.10;;;2.20;99.90;;;;;;4980822;28;20053;-74
2022/02/05 08:24:36;;;;;;;12.18;6.97;;;2.20;99.90;;;;;;5002433;28;20060;-74
2022/02/05 08:27:02;;;;;;;13.88;7.93;;;2.20;99.90;;;;;;4996103;28;20026;-75
2022/02/05 08:29:29;;;;;;;11.88;7.63;;;2.30;99.90;;;;;;5005865;28;20076;-74
2022/02/05 08:31:55;;;;;;;15.27;6.90;;;2.30;99.90;;;;;;4993377;28;20023;-74
2022/02/05 08:34:21;;;;;;;9.57;6.15;;;2.30;99.90;;;;;;4999990;28;20436;-75
2022/02/05 08:36:47;;;;;;;15.35;6.40;;;2.30;99.90;;;;;;4987882;28;20082;-74
2022/02/05 08:39:14;;;;;;;11.82;6.20;;;2.40;99.90;;;;;;4988917;28;20075;-74
2022/02/05 08:41:40;;;;;;;11.82;6.15;;;2.40;99.90;;;;;;4994122;28;20026;-74
2022/02/05 08:44:06;;;;;;;20.33;10.48;;;2.40;99.90;;;;;;4981787;28;20034;-74
2022/02/05 08:46:32;;;;;;;17.65;8.90;;;2.50;99.90;;;;;;4995396;28;20035;-75
2022/02/05 08:48:58;;;;;;;19.35;10.25;;;2.50;99.90;;;;;;4999487;28;20109;-75
2022/02/05 08:51:23;;;;;;;11.57;6.63;;;2.50;99.90;;;;;;4994864;28;20033;-75
2022/02/05 08:53:49;;;;;;;51.65;27.20;;;2.50;99.90;;;;;;4994577;28;20453;-74
2022/02/05 08:56:14;;;;;;;15.30;7.88;;;2.50;99.90;;;;;;4994682;28;20050;-75
2022/02/05 08:58:40;;;;;;;10.60;6.47;;;2.50;99.90;;;;;;4991635;28;20018;-74
2022/02/05 09:01:21;;;;;;;8.35;4.60;;;2.50;99.90;;;;;;4993314;28;20026;-75
2022/02/05 09:03:59;;;;;;;10.73;4.97;;;2.50;99.90;;;;;;4993482;28;20018;-75
2022/02/05 09:06:32;;;;;;;9.00;5.55;;;2.50;99.90;;;;;;4995169;28;20022;-75
2022/02/05 09:09:07;;;;;;;8.40;5.13;;;2.60;99.90;;;;;;4993375;28;20077;-75
2022/02/05 09:11:57;;;;;;;11.82;5.05;;;2.50;99.90;;;;;;4992095;28;20034;-75
2022/02/05 09:16:50;;;;;;;11.82;5.78;;;2.50;99.90;;;;;;4994925;28;20026;-75
2022/02/05 09:19:16;;;;;;;10.35;5.10;;;2.50;99.90;;;;;;4977412;28;20037;-75
2022/02/05 09:21:42;;;;;;;9.15;5.43;;;2.50;99.90;;;;;;4994375;28;20030;-75
2022/02/05 09:24:08;;;;;;;11.15;5.80;;;2.50;99.90;;;;;;4994574;28;20023;-75
2022/02/05 09:26:37;;;;;;;9.10;5.55;;;2.60;99.90;;;;;;4992982;28;20472;-75
2022/02/05 09:29:11;;;;;;;9.10;4.78;;;2.60;99.90;;;;;;4993747;28;20033;-75
2022/02/05 09:31:37;;;;;;;9.52;5.07;;;2.60;99.90;;;;;;4991842;28;20057;-75
2022/02/05 09:34:05;;;;;;;11.30;4.75;;;2.50;99.90;;;;;;4992721;28;20046;-74
2022/02/05 09:36:31;;;;;;;8.57;4.95;;;2.70;99.90;;;;;;4978443;28;20050;-74
2022/02/05 09:38:57;;;;;;;9.68;5.28;;;2.60;99.90;;;;;;4993769;28;20026;-75
2022/02/05 09:41:23;;;;;;;8.95;5.25;;;2.60;99.90;;;;;;4975138;28;20433;-75
2022/02/05 09:43:50;;;;;;;8.48;5.15;;;2.60;99.90;;;;;;4994073;28;20045;-75
2022/02/05 09:46:17;;;;;;;9.27;5.55;;;2.60;99.90;;;;;;4993510;28;20031;-75
2022/02/05 09:48:48;;;;;;;10.75;5.20;;;2.60;99.90;;;;;;4994294;28;20073;-75
2022/02/05 09:51:18;;;;;;;6.78;5.25;;;2.80;99.90;;;;;;4980153;28;20477;-75
2022/02/05 09:53:52;;;;;;;7.47;5.20;;;2.90;99.90;;;;;;4994724;28;20052;-78
2022/02/05 09:56:18;;;;;;;7.50;4.80;;;3.00;99.90;;;;;;4986844;28;20029;-75
2022/02/05 09:58:44;;;;;;;9.23;5.20;;;3.00;99.90;;;;;;4987383;28;20026;-75
2022/02/05 10:01:23;;;;;;;10.27;5.55;;;3.00;99.90;;;;;;4995621;28;20489;-75
2022/02/05 10:03:50;;;;;;;11.93;5.70;;;2.90;99.90;;;;;;4997080;28;20473;-75
2022/02/05 10:06:20;;;;;;;10.18;5.40;;;2.70;99.90;;;;;;4989071;28;20100;-75
2022/02/05 10:08:53;;;;;;;8.98;5.53;;;2.90;99.90;;;;;;4987875;28;20049;-75
2022/02/05 10:11:18;;;;;;;10.40;5.63;;;2.80;99.90;;;;;;4987371;28;20030;-74
2022/02/05 10:13:44;;;;;;;8.82;5.50;;;2.90;99.90;;;;;;4993001;28;20022;-74
2022/02/05 10:16:09;;;;;;;9.48;4.90;;;2.80;99.90;;;;;;4993941;28;20391;-74
2022/02/05 10:18:39;;;;;;;8.30;4.90;;;2.90;99.90;;;;;;4976770;28;20110;-74
2022/02/05 10:21:23;;;;;;;8.23;4.82;;;2.80;99.90;;;;;;5041445;22;20050;-73
2022/02/05 10:23:56;;;;;;;11.40;4.28;;;2.80;99.90;;;;;;5030892;28;20014;-72
2022/02/05 10:26:39;;;;;;;8.30;4.20;;;2.80;99.90;;;;;;5031482;28;20052;-73
2022/02/05 10:29:06;;;;;;;9.50;4.78;;;2.90;99.90;;;;;;5029784;28;20104;-72
2022/02/05 10:32:08;;;;;;;11.75;5.15;;;2.70;99.90;;;;;;5024571;28;20553;-72
2022/02/05 10:34:46;;;;;;;9.45;4.70;;;2.80;99.90;;;;;;5021708;28;20391;-72
2022/02/05 10:37:19;;;;;;;8.57;4.63;;;2.90;99.90;;;;;;5020059;28;20018;-73
2022/02/05 10:39:53;;;;;;;8.45;4.85;;;2.80;99.90;;;;;;5022292;28;20071;-72
2022/02/05 10:45:06;;;;;;;9.98;4.72;;;2.80;99.90;;;;;;5023276;28;20065;-73
2022/02/05 10:47:54;;;;;;;11.20;4.60;;;2.80;99.90;;;;;;5020721;28;20025;-73
2022/02/05 10:50:23;;;;;;;7.93;4.70;;;2.80;99.90;;;;;;5019941;28;20474;-73
2022/02/05 10:53:07;;;;;;;7.40;4.63;;;2.90;99.90;;;;;;5021364;28;20438;-72
2022/02/05 11:07:12;;;;;;;8.88;5.15;;;3.10;99.90;;;;;;5021250;28;20109;-72
2022/02/05 11:09:39;;;;;;;8.73;4.95;;;3.10;99.90;;;;;;5021019;28;20483;-73
2022/02/05 11:20:15;;;;;;;8.65;5.10;;;3.30;99.90;;;;;;5018525;28;20479;-72
2022/02/05 11:22:45;;;;;;;9.07;5.05;;;3.30;99.90;;;;;;5019949;28;20030;-73
2022/02/05 11:25:12;;;;;;;7.68;4.32;;;3.50;99.90;;;;;;5013084;28;20041;-72
2022/02/05 11:27:43;;;;;;;8.82;4.47;;;3.60;99.90;;;;;;5011248;28;20041;-73
2022/02/05 11:30:27;;;;;;;7.68;4.22;;;3.40;99.90;;;;;;5017865;28;20544;-73
2022/02/05 11:33:01;;;;;;;6.93;4.00;;;3.50;99.90;;;;;;5023109;28;20018;-73
2022/02/05 11:35:31;;;;;;;8.75;3.80;;;3.80;99.90;;;;;;5020883;28;20044;-73
2022/02/05 11:37:59;;;;;;;7.38;4.18;;;3.80;99.90;;;;;;5019738;28;20506;-72
2022/02/05 11:40:45;;;;;;;9.10;3.70;;;4.10;99.90;;;;;;5020297;28;20171;-73
2022/02/05 11:43:31;;;;;;;7.53;4.18;;;4.00;99.90;;;;;;5019570;28;20017;-72
2022/02/05 11:46:06;;;;;;;7.20;3.97;;;3.80;99.90;;;;;;5020114;28;20104;-73
2022/02/05 11:48:50;;;;;;;9.23;4.10;;;3.80;99.90;;;;;;5019222;28;20022;-72
2022/02/05 11:51:31;;;;;;;8.35;4.55;;;3.80;99.90;;;;;;5019225;28;20025;-72
2022/02/05 11:53:59;;;;;;;8.05;3.90;;;3.90;99.90;;;;;;5019982;28;20022;-72
2022/02/05 11:56:51;;;;;;;8.85;3.85;;;3.90;99.90;;;;;;5019412;28;20108;-72
2022/02/05 11:59:30;;;;;;;6.15;3.75;;;4.00;99.90;;;;;;5020461;28;20454;-72
2022/02/05 12:02:13;;;;;;;7.13;3.95;;;3.90;99.90;;;;;;5020502;28;20025;-72
2022/02/05 12:04:38;;;;;;;6.10;3.70;;;3.90;99.90;;;;;;5021835;28;20025;-72
2022/02/05 12:07:07;;;;;;;8.27;3.78;;;3.80;99.90;;;;;;5021124;28;20431;-72
2022/02/05 12:09:42;;;;;;;8.73;3.67;;;3.80;99.90;;;;;;5019877;28;20030;-72
2022/02/05 12:12:23;;;;;;;7.50;4.15;;;3.90;99.90;;;;;;5018594;28;20028;-72
2022/02/05 12:15:14;;;;;;;6.65;4.03;;;3.80;99.90;;;;;;5020257;28;20018;-72
2022/02/05 12:18:14;;;;;;;12.27;3.97;;;3.90;99.90;;;;;;5018259;28;20026;-72
2022/02/05 12:20:58;;;;;;;6.53;3.38;;;3.90;99.90;;;;;;5019321;28;20036;-72
2022/02/05 12:23:52;;;;;;;7.18;3.55;;;3.80;99.90;;;;;;5019056;28;20052;-72
2022/02/05 12:26:33;;;;;;;7.90;4.05;;;3.90;99.90;;;;;;5019846;28;20083;-72
2022/02/05 12:29:01;;;;;;;6.88;3.70;;;3.90;99.90;;;;;;5019195;28;20021;-72
2022/02/05 12:31:30;;;;;;;6.00;3.70;;;4.00;99.90;;;;;;5017942;28;20084;-72
2022/02/05 12:34:14;;;;;;;7.63;3.33;;;4.10;99.90;;;;;;5017934;28;20847;-72
2022/02/05 12:36:42;;;;;;;4.97;3.40;;;4.20;99.90;;;;;;5019863;28;20022;-72
2022/02/05 12:39:11;;;;;;;6.32;3.22;;;4.20;99.90;;;;;;5020370;28;20463;-72
2022/02/05 12:41:44;;;;;;;5.45;3.20;;;4.20;99.90;;;;;;5020258;28;20053;-72
2022/02/05 12:44:09;;;;;;;5.78;3.22;;;4.30;99.90;;;;;;5020172;28;20033;-73
2022/02/05 12:46:51;;;;;;;6.65;3.63;;;4.50;99.90;;;;;;5022283;28;20022;-72
2022/02/05 12:49:24;;;;;;;9.15;3.25;;;4.60;99.90;;;;;;5018869;28;20083;-72
2022/02/05 12:51:52;;;;;;;8.32;2.75;;;4.60;99.90;;;;;;5012623;28;20056;-72
2022/02/05 12:54:22;;;;;;;6.15;2.63;;;4.70;99.90;;;;;;5014233;28;20121;-72
2022/02/05 12:56:48;;;;;;;5.35;2.95;;;4.70;99.90;;;;;;5018238;28;20032;-72
2022/02/05 12:59:22;;;;;;;6.15;2.42;;;4.70;99.90;;;;;;4996680;28;20018;-72
2022/02/05 13:01:55;;;;;;;5.70;3.15;;;4.80;99.90;;;;;;5017192;28;20078;-72
2022/02/05 13:04:24;;;;;;;4.97;2.35;;;4.80;99.90;;;;;;5036334;28;20025;-72
2022/02/05 13:07:21;;;;;;;5.68;2.50;;;4.80;99.90;;;;;;5021635;28;20030;-72
2022/02/05 13:10:05;;;;;;;4.82;2.15;;;4.70;99.90;;;;;;5013968;28;20053;-72
2022/02/05 13:12:42;;;;;;;6.40;2.55;;;4.50;99.90;;;;;;5022605;28;20022;-71
2022/02/05 13:15:23;;;;;;;5.95;2.50;;;4.40;99.90;;;;;;5022372;28;20017;-72
2022/02/05 13:18:10;;;;;;;6.47;3.17;;;4.50;99.90;;;;;;5022717;28;20064;-72
2022/02/05 13:28:36;;;;;;;6.15;2.88;;;4.70;99.90;;;;;;5023380;28;20033;-72
2022/02/05 13:34:10;;;;;;;7.05;3.33;;;4.90;99.90;;;;;;5024366;28;20439;-73
2022/02/05 13:36:53;;;;;;;5.35;2.55;;;4.70;99.90;;;;;;5022545;28;20030;-73
2022/02/05 13:39:49;;;;;;;6.75;2.70;;;4.70;99.90;;;;;;5021550;28;20018;-72
2022/02/05 13:42:20;;;;;;;7.20;2.67;;;4.70;99.90;;;;;;5022294;28;20037;-72
2022/02/05 13:45:03;;;;;;;6.93;2.78;;;4.80;99.90;;;;;;5021341;28;20030;-73
2022/02/05 13:47:34;;;;;;;6.03;2.70;;;4.80;99.90;;;;;;5023148;28;20071;-73
2022/02/05 13:50:21;;;;;;;8.85;2.95;;;4.90;99.90;;;;;;5023336;28;20029;-73
2022/02/05 13:52:51;;;;;;;4.88;2.75;;;4.80;99.90;;;;;;5021063;28;20021;-73
2022/02/05 13:55:28;;;;;;;5.55;2.50;;;4.70;99.90;;;;;;5022020;28;20029;-72
2022/02/05 13:58:00;;;;;;;4.13;2.17;;;4.70;99.90;;;;;;5022948;28;20021;-73
2022/02/05 14:00:48;;;;;;;5.25;2.30;;;4.50;99.90;;;;;;5021757;28;20661;-73
2022/02/05 14:03:33;;;;;;;4.15;2.03;;;4.30;99.90;;;;;;5021086;28;20027;-72
2022/02/05 14:06:01;;;;;;;5.88;2.50;;;4.30;99.90;;;;;;5022601;28;20014;-73
2022/02/05 14:08:28;;;;;;;5.22;2.58;;;4.30;99.90;;;;;;5022472;28;20021;-72
2022/02/05 14:10:55;;;;;;;10.25;3.20;;;;;;;;;;5022138;28;20022;-72
2022/02/05 14:13:21;;;;;;;8.55;2.63;;;;;;;;;;5021969;28;20526;-72
2022/02/05 14:15:52;;;;;;;7.07;2.65;;;;;;;;;;5021455;28;20024;-71
2022/02/05 14:18:18;;;;;;;4.32;2.30;;;;;;;;;;5022383;28;20020;-71
2022/02/05 14:21:03;;;;;;;6.03;2.70;;;;;;;;;;5020928;28;20042;-71
2022/02/05 14:23:32;;;;;;;6.35;2.70;;;4.30;99.90;;;;;;5022202;28;20048;-71
2022/02/05 14:26:16;;;;;;;6.28;2.70;;;4.30;99.90;;;;;;5021610;28;20037;-71
2022/02/05 14:28:50;;;;;;;5.15;2.47;;;4.60;99.90;;;;;;5019939;28;20056;-72
2022/02/05 14:32:09;;;;;;;8.48;3.10;;;;;;;;;;5022940;28;20063;-72
2022/02/05 14:34:11;;;;;;;5.18;3.10;;;;;;;;;;5017904;28;20108;-71
2022/02/05 14:42:05;;;;;;;4.70;2.90;;;;;;;;;;5021043;28;20029;-71
2022/02/05 14:44:31;;;;;;;7.82;3.15;;;;;;;;;;5020637;28;20104;-72
2022/02/05 14:46:57;;;;;;;6.05;3.05;;;;;;;;;;5020882;28;20394;-72
2022/02/05 14:49:23;;;;;;;6.43;2.85;;;;;;;;;;5021664;28;20018;-72
2022/02/05 14:51:49;;;;;;;5.85;2.92;;;;;;;;;;5021055;28;20033;-72
2022/02/05 14:54:15;;;;;;;5.40;2.88;;;4.50;99.90;;;;;;5021893;28;20017;-72
2022/02/05 14:56:41;;;;;;;8.15;3.00;;;4.40;99.90;;;;;;5020827;28;20463;-72
2022/02/05 14:59:08;;;;;;;3.38;2.67;;;4.40;99.90;;;;;;5020625;28;20109;-72
2022/02/05 15:01:37;;;;;;;6.72;3.90;;;4.40;99.90;;;;;;5021506;28;20120;-72
2022/02/05 15:04:04;;;;;;;5.18;3.30;;;4.40;99.90;;;;;;5021503;28;20513;-72
2022/02/05 15:06:32;;;;;;;7.68;3.38;;;4.40;99.90;;;;;;5021574;28;20396;-72
2022/02/05 15:08:59;;;;;;;6.82;2.47;;;4.50;99.90;;;;;;5021035;28;20029;-72
2022/02/05 15:11:30;;;;;;;7.93;3.33;;;4.50;99.90;;;;;;5018877;28;20025;-72
2022/02/05 15:14:00;;;;;;;5.70;3.20;;;4.40;99.90;;;;;;5021306;28;20021;-72
2022/02/05 15:16:28;;;;;;;6.00;2.90;;;4.40;99.90;;;;;;5021831;28;20024;-72
2022/02/05 15:18:56;;;;;;;5.38;2.97;;;4.30;99.90;;;;;;5018183;28;20065;-72
2022/02/05 15:21:32;;;;;;;4.88;2.85;;;4.20;99.90;;;;;;5020189;28;20112;-72
2022/02/05 15:23:59;;;;;;;4.70;3.10;;;4.10;99.90;;;;;;5019813;28;20026;-72
2022/02/05 15:26:27;;;;;;;7.32;3.22;;;4.10;99.90;;;;;;5019736;28;20104;-72
2022/02/05 15:28:53;;;;;;;8.02;3.50;;;;;;;;;;5020662;28;20017;-72
2022/02/05 15:31:19;;;;;;;9.35;3.15;;;4.00;99.90;;;;;;5019854;28;20056;-72
2022/02/05 15:33:49;;;;;;;5.55;3.78;;;4.10;99.90;;;;;;5019783;28;20045;-72
2022/02/05 15:36:20;;;;;;;7.90;3.67;;;4.10;99.90;;;;;;5020888;28;20018;-72
2022/02/05 15:39:10;;;;;;;6.93;3.45;;;4.10;99.90;;;;;;5020055;28;20075;-72
2022/02/05 15:44:21;;;;;;;8.75;4.60;;;4.20;99.90;;;;;;5021319;28;20096;-71
2022/02/05 15:46:47;;;;;;;9.38;4.10;;;4.20;99.90;;;;;;5020859;28;20018;-72
2022/02/05 15:49:13;;;;;;;6.30;4.03;;;4.20;99.90;;;;;;5021400;28;20048;-72
2022/02/05 15:51:39;;;;;;;8.95;5.47;;;;;;;;;;5019900;28;20566;-72
2022/02/05 15:54:06;;;;;;;9.35;7.70;;;4.00;99.90;;;;;;5019438;28;20092;-72
2022/02/05 15:57:20;;;;;;;11.35;8.57;;;4.10;99.90;;;;;;5019497;28;20014;-72
2022/02/05 15:59:26;;;;;;;10.45;6.45;;;3.90;99.90;;;;;;5015356;28;20041;-72
2022/02/05 16:01:52;;;;;;;8.00;4.13;;;3.70;99.90;;;;;;5020942;28;20021;-72
2022/02/05 16:04:21;;;;;;;7.60;3.30;;;3.70;99.90;;;;;;5019716;28;20067;-72
2022/02/05 16:06:48;;;;;;;7.78;3.70;;;3.60;99.90;;;;;;5020268;28;20047;-72
2022/02/05 16:09:14;;;;;;;10.98;3.80;;;3.60;99.90;;;;;;5019964;28;20026;-71
2022/02/05 16:11:39;;;;;;;8.55;3.90;;;3.60;99.90;;;;;;5020934;28;20030;-71